MST,Max TemperatureF,Mean TemperatureF,Min TemperatureF,Max Dew PointF,MeanDew PointF,Min DewpointF,Max Humidity, Mean Humidity, Min Humidity, Max Sea Level PressureIn, Mean Sea Level PressureIn, Min Sea Level PressureIn, Max VisibilityMiles, Mean VisibilityMiles, Min VisibilityMiles, Max Wind SpeedMPH, Mean Wind SpeedMPH, Max Gust SpeedMPH,PrecipitationIn, CloudCover, Events, WindDirDegrees
2013-2-1,56,35,14,25,20,12,100,64,28,30.28,30.14,29.98,10,8,2,17,8,21,0.00,3,,259
2013-2-2,58,39,19,21,18,13,92,56,19,30.39,30.29,30.21,10,10,10,14,6,17,0.00,0,,234
2013-2-3,50,34,17,19,16,11,77,53,29,30.28,30.06,29.88,10,10,10,12,4,12,0.00,0,,241
2013-2-4,58,38,18,14,12,10,74,45,16,30.06,29.93,29.83,10,10,2,13,7,18,0.00,0,,243
2013-2-5,59,37,15,18,14,8,67,43,19,30.10,29.99,29.91,10,10,10,15,7,17,0.00,0,,198
2013-2-6,64,40,15,20,16,10,80,48,16,29.90,29.81,29.68,10,10,10,21,7,25,0.00,0,,344
2013-2-7,55,39,22,26,18,9,69,44,19,30.19,30.09,29.91,10,10,10,20,8,24,0.00,1,,344
2013-2-8,59,39,18,23,20,10,62,43,24,30.13,29.89,29.72,10,7,2,44,23,54,0.00,2,,188
2013-2-9,65,48,30,30,20,7,82,46,10,29.75,29.51,29.31,10,9,2,44,18,54,T,3,Snow,212
2013-2-10,46,32,17,30,17,10,92,59,25,30.12,29.77,29.47,10,10,8,36,15,43,0.00,2,,325
2013-2-11,41,25,9,11,9,4,80,54,27,30.23,30.13,30.03,10,10,10,16,6,22,0.00,2,,126
2013-2-12,48,30,12,13,5,-3,73,43,13,30.13,30.07,29.99,10,10,10,15,7,20,0.00,0,,274
2013-2-13,55,33,10,11,6,0,73,45,17,30.12,30.02,29.91,10,10,10,14,5,17,0.00,0,,227
2013-2-14,51,34,17,28,16,3,69,50,31,30.36,30.20,30.04,10,10,10,32,9,39,T,5,,306
2013-2-15,47,28,9,15,12,6,83,55,27,30.43,30.36,30.26,10,10,10,29,8,36,0.00,2,,272
2013-2-16,61,36,11,16,9,4,80,47,14,30.38,30.15,29.96,10,10,10,15,6,23,0.00,0,,239
2013-2-17,71,43,15,17,4,-4,56,31,5,29.96,29.70,29.49,10,10,10,31,10,37,0.00,0,,238
2013-2-18,49,31,12,22,12,4,59,38,16,30.19,29.93,29.60,10,10,4,33,14,45,0.00,2,,349
2013-2-19,56,32,8,19,12,1,76,48,20,30.22,30.04,29.86,10,10,10,32,14,40,0.00,0,,141
2013-2-20,45,36,26,40,31,18,96,72,47,29.83,29.71,29.61,10,6,0,33,20,40,0.09,8,Fog-Snow,126
2013-2-21,32,22,12,30,18,11,100,87,74,30.02,29.79,29.61,10,5,1,22,11,26,0.01,7,Snow,28
2013-2-22,41,26,11,26,19,9,92,68,44,30.06,30.02,29.95,10,10,9,10,5,12,0.00,3,,223
2013-2-23,51,32,12,29,20,10,96,60,24,29.98,29.79,29.62,10,9,4,17,6,28,0.00,0,,279
2013-2-24,34,31,28,29,27,23,100,88,75,30.05,29.76,29.60,10,6,0,24,13,31,T,8,Fog-Snow,23
2013-2-25,42,27,12,25,21,10,88,65,41,30.07,29.99,29.93,10,10,10,23,13,30,0.00,5,,359
2013-2-26,46,27,7,32,22,4,92,57,22,30.01,29.90,29.81,10,8,1,25,10,31,T,5,Snow,316
2013-2-27,46,33,20,27,17,9,78,50,22,30.29,30.21,30.02,10,10,10,28,15,36,0.00,2,,324
2013-2-28,52,33,14,14,10,2,80,47,13,30.36,30.26,30.17,10,10,10,25,10,30,0.00,2,,289